Dierks, Arkansas
Current Conditions -  °F | °C
As of 7:53 PM on Saturday 22 Nov 2014 (Local Time) from KDEQ Reporting Station
Overcast Overcast  
Wind Chill: 60°   Ceiling: 2800
Heat Index: 60°   Visibility: 10mi
Dew Point: 57°   Wind: 7mph
Humidity: 90%   Direction: 100°E
Pressure: 29.88"   Gusts: NA
Location:  34.12°N, 94.02°W
Report Text: KDEQ 230153Z AUTO 10006KT 10SM BKN028 OVC036 16/14 A2988 RMK AO2 SLP114 T01560139
Loading
Personal Weather Stations






























Interactive Weather Map New forecast layout! Learn more

10-Day Weather Forecast

Advertisements
Track Severe Weather on mobile